Time,TemperatureF,DewpointF,PressureIn,WindDirection,WindDirectionDegrees,WindSpeedMPH,WindSpeedGustMPH,Humidity,HourlyPrecipIn,Conditions,Clouds,dailyrainin,SolarRadiationWatts/m^2,SoftwareType,DateUTC
2013-05-28 00:03:00,68.0,59.0,-100.00,SW,225,0.0,2.0,73,0.00,,,0.00,0.000000,,2013-05-28 04:03:00,
2013-05-28 00:33:00,65.0,59.0,-100.00,WSW,237,1.0,3.0,81,0.00,,,0.00,0.000000,,2013-05-28 04:33:00,
2013-05-28 00:43:00,65.0,59.0,-100.00,WSW,237,1.0,3.0,81,0.00,,,0.00,0.000000,,2013-05-28 04:43:00,
2013-05-28 00:53:00,65.0,59.0,-100.00,WSW,237,1.0,3.0,81,0.00,,,0.00,0.000000,,2013-05-28 04:53:00,
2013-05-28 01:02:00,65.0,59.0,-100.00,WSW,237,1.0,3.0,81,0.00,,,0.00,0.000000,,2013-05-28 05:02:00,
2013-05-28 01:33:00,64.0,60.0,-100.00,SW,220,0.0,3.0,86,0.00,,,0.00,0.000000,,2013-05-28 05:33:00,
2013-05-28 01:42:00,64.0,60.0,-100.00,SW,220,0.0,3.0,86,0.00,,,0.00,0.000000,,2013-05-28 05:42:00,
2013-05-28 01:52:00,64.0,60.0,-100.00,SW,220,0.0,3.0,86,0.00,,,0.00,0.000000,,2013-05-28 05:52:00,
2013-05-28 02:02:00,64.0,60.0,-100.00,SW,220,0.0,3.0,86,0.00,,,0.00,0.000000,,2013-05-28 06:02:00,
2013-05-28 02:32:00,62.0,59.0,-100.00,WSW,239,0.0,3.0,90,0.00,,,0.00,0.000000,,2013-05-28 06:32:00,
2013-05-28 02:42:00,62.0,59.0,-100.00,WSW,239,0.0,3.0,90,0.00,,,0.00,0.000000,,2013-05-28 06:42:00,
2013-05-28 02:52:00,62.0,59.0,-100.00,WSW,239,0.0,3.0,90,0.00,,,0.00,0.000000,,2013-05-28 06:52:00,
2013-05-28 03:02:00,62.0,59.0,-100.00,WSW,239,0.0,3.0,90,0.00,,,0.00,0.000000,,2013-05-28 07:02:00,
2013-05-28 03:32:00,61.0,59.0,-100.00,SSW,204,1.0,3.0,93,0.00,,,0.00,0.000000,,2013-05-28 07:32:00,
2013-05-28 03:42:00,61.0,59.0,-100.00,SSW,204,1.0,3.0,93,0.00,,,0.00,0.000000,,2013-05-28 07:42:00,
2013-05-28 03:52:00,61.0,59.0,-100.00,SSW,204,1.0,3.0,93,0.00,,,0.00,0.000000,,2013-05-28 07:52:00,
2013-05-28 04:02:00,61.0,59.0,-100.00,SSW,204,1.0,3.0,93,0.00,,,0.00,0.000000,,2013-05-28 08:02:00,
2013-05-28 04:32:00,60.0,59.0,-100.00,West,260,2.0,3.0,96,0.00,,,0.00,0.000000,,2013-05-28 08:32:00,
2013-05-28 04:42:00,60.0,59.0,-100.00,West,260,2.0,3.0,96,0.00,,,0.00,0.000000,,2013-05-28 08:42:00,
2013-05-28 04:52:00,60.0,59.0,-100.00,West,260,2.0,3.0,96,0.00,,,0.00,0.000000,,2013-05-28 08:52:00,
2013-05-28 05:01:00,60.0,59.0,-100.00,West,260,2.0,3.0,96,0.00,,,0.00,0.000000,,2013-05-28 09:01:00,
2013-05-28 05:33:00,59.0,58.0,-100.00,SW,235,1.0,2.0,98,0.00,,,0.00,0.000000,,2013-05-28 09:33:00,
2013-05-28 05:43:00,59.0,58.0,-100.00,SW,235,1.0,2.0,98,0.00,,,0.00,0.000000,,2013-05-28 09:43:00,
2013-05-28 05:54:00,59.0,58.0,-100.00,SW,235,1.0,2.0,98,0.00,,,0.00,0.000000,,2013-05-28 09:54:00,
2013-05-28 06:03:00,59.0,58.0,-100.00,SW,235,1.0,2.0,98,0.00,,,0.00,0.000000,,2013-05-28 10:03:00,
2013-05-28 06:32:00,59.0,59.0,-100.00,SW,228,0.0,3.0,99,0.00,,,0.00,0.000000,,2013-05-28 10:32:00,
2013-05-28 06:43:00,59.0,59.0,-100.00,SW,228,0.0,3.0,99,0.00,,,0.00,0.000000,,2013-05-28 10:43:00,
2013-05-28 06:53:00,59.0,59.0,-100.00,SW,228,0.0,3.0,99,0.00,,,0.00,0.000000,,2013-05-28 10:53:00,
2013-05-28 07:02:00,59.0,59.0,-100.00,SW,228,0.0,3.0,99,0.00,,,0.00,0.000000,,2013-05-28 11:02:00,
2013-05-28 07:32:00,60.0,59.0,-100.00,SW,220,1.0,4.0,98,0.00,,,0.00,13.000000,,2013-05-28 11:32:00,
2013-05-28 07:42:00,60.0,59.0,-100.00,SW,220,1.0,4.0,98,0.00,,,0.00,13.000000,,2013-05-28 11:42:00,
2013-05-28 07:52:00,60.0,59.0,-100.00,SW,220,1.0,4.0,98,0.00,,,0.00,13.000000,,2013-05-28 11:52:00,
2013-05-28 08:02:00,60.0,59.0,-100.00,SW,220,1.0,4.0,98,0.00,,,0.00,13.000000,,2013-05-28 12:02:00,
2013-05-28 08:32:00,68.0,62.0,-100.00,ENE,65,1.0,3.0,82,0.00,,,0.00,136.000000,,2013-05-28 12:32:00,
2013-05-28 08:42:00,68.0,62.0,-100.00,ENE,65,1.0,3.0,82,0.00,,,0.00,136.000000,,2013-05-28 12:42:00,
2013-05-28 08:52:00,68.0,62.0,-100.00,ENE,65,1.0,3.0,82,0.00,,,0.00,136.000000,,2013-05-28 12:52:00,
2013-05-28 09:01:00,68.0,62.0,-100.00,ENE,65,1.0,3.0,82,0.00,,,0.00,136.000000,,2013-05-28 13:01:00,
2013-05-28 09:32:00,72.0,62.0,-100.00,North,8,1.0,3.0,71,0.00,,,0.00,262.000000,,2013-05-28 13:32:00,
2013-05-28 09:42:00,72.0,62.0,-100.00,North,8,1.0,3.0,71,0.00,,,0.00,262.000000,,2013-05-28 13:42:00,
2013-05-28 09:52:00,72.0,62.0,-100.00,North,8,1.0,3.0,71,0.00,,,0.00,262.000000,,2013-05-28 13:52:00,
2013-05-28 10:02:00,72.0,62.0,-100.00,North,8,1.0,3.0,71,0.00,,,0.00,262.000000,,2013-05-28 14:02:00,
2013-05-28 10:32:00,77.0,64.0,-100.00,NNE,31,3.0,7.0,64,0.00,,,0.00,503.000000,,2013-05-28 14:32:00,
2013-05-28 10:42:00,77.0,64.0,-100.00,NNE,31,3.0,7.0,64,0.00,,,0.00,503.000000,,2013-05-28 14:42:00,
2013-05-28 10:52:00,77.0,64.0,-100.00,NNE,31,3.0,7.0,64,0.00,,,0.00,503.000000,,2013-05-28 14:52:00,
2013-05-28 11:01:00,77.0,64.0,-100.00,NNE,31,3.0,7.0,64,0.00,,,0.00,503.000000,,2013-05-28 15:01:00,
2013-05-28 11:33:00,79.0,63.0,-100.00,ENE,57,3.0,6.0,59,0.00,,,0.00,609.000000,,2013-05-28 15:33:00,
2013-05-28 11:43:00,79.0,63.0,-100.00,ENE,57,3.0,6.0,59,0.00,,,0.00,609.000000,,2013-05-28 15:43:00,
2013-05-28 11:53:00,79.0,63.0,-100.00,ENE,57,3.0,6.0,59,0.00,,,0.00,609.000000,,2013-05-28 15:53:00,
2013-05-28 12:03:00,79.0,63.0,-100.00,ENE,57,3.0,6.0,59,0.00,,,0.00,609.000000,,2013-05-28 16:03:00,
2013-05-28 12:33:00,81.0,61.0,-100.00,ENE,76,3.0,8.0,51,0.00,,,0.00,720.000000,,2013-05-28 16:33:00,
2013-05-28 12:42:00,81.0,61.0,-100.00,ENE,76,3.0,8.0,51,0.00,,,0.00,720.000000,,2013-05-28 16:42:00,
2013-05-28 12:53:00,81.0,61.0,-100.00,ENE,76,3.0,8.0,51,0.00,,,0.00,720.000000,,2013-05-28 16:53:00,
2013-05-28 13:02:00,81.0,61.0,-100.00,ENE,76,3.0,8.0,51,0.00,,,0.00,720.000000,,2013-05-28 17:02:00,
2013-05-28 13:32:00,82.0,60.0,-100.00,West,268,3.0,9.0,47,0.00,,,0.00,778.000000,,2013-05-28 17:32:00,
2013-05-28 13:42:00,82.0,60.0,-100.00,West,268,3.0,9.0,47,0.00,,,0.00,778.000000,,2013-05-28 17:42:00,
2013-05-28 13:52:00,82.0,60.0,-100.00,West,268,3.0,9.0,47,0.00,,,0.00,778.000000,,2013-05-28 17:52:00,
2013-05-28 14:01:00,82.0,60.0,-100.00,West,268,3.0,9.0,47,0.00,,,0.00,778.000000,,2013-05-28 18:01:00,
2013-05-28 14:32:00,85.0,60.0,-100.00,SSW,199,4.0,12.0,43,0.00,,,0.00,811.000000,,2013-05-28 18:32:00,
2013-05-28 14:42:00,85.0,60.0,-100.00,SSW,199,4.0,12.0,43,0.00,,,0.00,811.000000,,2013-05-28 18:42:00,
2013-05-28 14:52:00,85.0,60.0,-100.00,SSW,199,4.0,12.0,43,0.00,,,0.00,811.000000,,2013-05-28 18:52:00,
2013-05-28 15:01:00,85.0,60.0,-100.00,SSW,199,4.0,12.0,43,0.00,,,0.00,811.000000,,2013-05-28 19:01:00,
2013-05-28 15:32:00,86.0,60.0,-100.00,WSW,258,3.0,10.0,42,0.00,,,0.00,705.000000,,2013-05-28 19:32:00,
2013-05-28 15:42:00,86.0,60.0,-100.00,WSW,258,3.0,10.0,42,0.00,,,0.00,705.000000,,2013-05-28 19:42:00,
2013-05-28 15:52:00,86.0,60.0,-100.00,WSW,258,3.0,10.0,42,0.00,,,0.00,705.000000,,2013-05-28 19:52:00,
2013-05-28 16:02:00,86.0,60.0,-100.00,WSW,258,3.0,10.0,42,0.00,,,0.00,705.000000,,2013-05-28 20:02:00,
2013-05-28 16:32:00,86.0,59.0,-100.00,WSW,256,3.0,10.0,40,0.00,,,0.00,647.000000,,2013-05-28 20:32:00,
2013-05-28 16:42:00,86.0,59.0,-100.00,WSW,256,3.0,10.0,40,0.00,,,0.00,647.000000,,2013-05-28 20:42:00,
2013-05-28 16:52:00,86.0,59.0,-100.00,WSW,256,3.0,10.0,40,0.00,,,0.00,647.000000,,2013-05-28 20:52:00,
2013-05-28 17:02:00,86.0,59.0,-100.00,WSW,256,3.0,10.0,40,0.00,,,0.00,647.000000,,2013-05-28 21:02:00,
2013-05-28 17:33:00,86.0,59.0,-100.00,WSW,255,4.0,13.0,40,0.00,,,0.00,555.000000,,2013-05-28 21:33:00,
2013-05-28 17:43:00,86.0,59.0,-100.00,WSW,255,4.0,13.0,40,0.00,,,0.00,555.000000,,2013-05-28 21:43:00,
2013-05-28 17:53:00,86.0,59.0,-100.00,WSW,255,4.0,13.0,40,0.00,,,0.00,555.000000,,2013-05-28 21:53:00,
2013-05-28 18:02:00,86.0,59.0,-100.00,WSW,255,4.0,13.0,40,0.00,,,0.00,555.000000,,2013-05-28 22:02:00,
2013-05-28 18:33:00,87.0,60.0,-100.00,NW,311,2.0,7.0,41,0.00,,,0.00,467.000000,,2013-05-28 22:33:00,
2013-05-28 18:42:00,87.0,60.0,-100.00,NW,311,2.0,7.0,41,0.00,,,0.00,467.000000,,2013-05-28 22:42:00,
2013-05-28 18:52:00,87.0,60.0,-100.00,NW,311,2.0,7.0,41,0.00,,,0.00,467.000000,,2013-05-28 22:52:00,
2013-05-28 19:02:00,87.0,60.0,-100.00,NW,311,2.0,7.0,41,0.00,,,0.00,467.000000,,2013-05-28 23:02:00,
2013-05-28 19:32:00,84.0,60.0,-100.00,WNW,303,2.0,7.0,44,0.00,,,0.00,278.000000,,2013-05-28 23:32:00,
2013-05-28 19:42:00,84.0,60.0,-100.00,WNW,303,2.0,7.0,44,0.00,,,0.00,278.000000,,2013-05-28 23:42:00,
2013-05-28 19:52:00,84.0,60.0,-100.00,WNW,303,2.0,7.0,44,0.00,,,0.00,278.000000,,2013-05-28 23:52:00,
2013-05-28 20:02:00,84.0,60.0,-100.00,WNW,303,2.0,7.0,44,0.00,,,0.00,278.000000,,2013-05-29 00:02:00,
2013-05-28 20:32:00,78.0,61.0,-100.00,WNW,290,2.0,5.0,56,0.00,,,0.00,36.000000,,2013-05-29 00:32:00,
2013-05-28 20:42:00,78.0,61.0,-100.00,WNW,290,2.0,5.0,56,0.00,,,0.00,36.000000,,2013-05-29 00:42:00,
2013-05-28 20:52:00,78.0,61.0,-100.00,WNW,290,2.0,5.0,56,0.00,,,0.00,36.000000,,2013-05-29 00:52:00,
2013-05-28 21:01:00,78.0,61.0,-100.00,WNW,290,2.0,5.0,56,0.00,,,0.00,36.000000,,2013-05-29 01:01:00,
2013-05-28 21:32:00,74.0,61.0,-100.00,SSW,204,1.0,3.0,65,0.00,,,0.00,7.000000,,2013-05-29 01:32:00,
2013-05-28 21:42:00,74.0,61.0,-100.00,SSW,204,1.0,3.0,65,0.00,,,0.00,7.000000,,2013-05-29 01:42:00,
2013-05-28 21:52:00,74.0,61.0,-100.00,SSW,204,1.0,3.0,65,0.00,,,0.00,7.000000,,2013-05-29 01:52:00,
2013-05-28 22:02:00,74.0,61.0,-100.00,SSW,204,1.0,3.0,65,0.00,,,0.00,7.000000,,2013-05-29 02:02:00,
2013-05-28 22:32:00,71.0,63.0,-100.00,SSW,195,0.0,3.0,75,0.00,,,0.00,0.000000,,2013-05-29 02:32:00,
2013-05-28 22:42:00,71.0,63.0,-100.00,SSW,195,0.0,3.0,75,0.00,,,0.00,0.000000,,2013-05-29 02:42:00,
2013-05-28 22:52:00,71.0,63.0,-100.00,SSW,195,0.0,3.0,75,0.00,,,0.00,0.000000,,2013-05-29 02:52:00,
2013-05-28 23:02:00,71.0,63.0,-100.00,SSW,195,0.0,3.0,75,0.00,,,0.00,0.000000,,2013-05-29 03:02:00,
2013-05-28 23:33:00,69.0,62.0,-100.00,SW,227,1.0,3.0,79,0.00,,,0.00,0.000000,,2013-05-29 03:33:00,
2013-05-28 23:43:00,69.0,62.0,-100.00,SW,227,1.0,3.0,79,0.00,,,0.00,0.000000,,2013-05-29 03:43:00,
2013-05-28 23:53:00,69.0,62.0,-100.00,SW,227,1.0,3.0,79,0.00,,,0.00,0.000000,,2013-05-29 03:53:00,